sensor_id;sensor_type;location;lat;lon;timestamp;pressure;altitude;pressure_sealevel;temperature;humidity
8039;BME280;4062;49.844;8.120;2022-07-10T00:00:33;100108.16;;;19.21;57.13
8039;BME280;4062;49.844;8.120;2022-07-10T00:02:37;100110.84;;;19.21;56.83
8039;BME280;4062;49.844;8.120;2022-07-10T00:04:38;100109.00;;;19.22;57.10
8039;BME280;4062;49.844;8.120;2022-07-10T00:06:39;100109.91;;;19.23;57.04
8039;BME280;4062;49.844;8.120;2022-07-10T00:08:42;100109.00;;;19.22;57.02
8039;BME280;4062;49.844;8.120;2022-07-10T00:10:45;100114.38;;;19.22;56.97
8039;BME280;4062;49.844;8.120;2022-07-10T00:12:47;100102.81;;;19.21;57.25
8039;BME280;4062;49.844;8.120;2022-07-10T00:14:49;100106.34;;;19.22;57.13
8039;BME280;4062;49.844;8.120;2022-07-10T00:16:49;100104.53;;;19.23;57.14
8039;BME280;4062;49.844;8.120;2022-07-10T00:18:51;100102.81;;;19.21;56.89
8039;BME280;4062;49.844;8.120;2022-07-10T00:20:51;100106.34;;;19.22;57.20
8039;BME280;4062;49.844;8.120;2022-07-10T00:22:52;100110.84;;;19.21;57.14
8039;BME280;4062;49.844;8.120;2022-07-10T00:24:53;100106.34;;;19.22;57.02
8039;BME280;4062;49.844;8.120;2022-07-10T00:26:53;100102.81;;;19.21;56.89
8039;BME280;4062;49.844;8.120;2022-07-10T00:28:54;100101.06;;;19.20;56.92
8039;BME280;4062;49.844;8.120;2022-07-10T00:30:55;100101.91;;;19.21;56.96
8039;BME280;4062;49.844;8.120;2022-07-10T00:32:56;100099.22;;;19.21;57.09
8039;BME280;4062;49.844;8.120;2022-07-10T00:34:57;100096.56;;;19.21;57.11
8039;BME280;4062;49.844;8.120;2022-07-10T00:36:58;100093.88;;;19.21;56.85
8039;BME280;4062;49.844;8.120;2022-07-10T00:38:59;100100.13;;;19.21;56.85
8039;BME280;4062;49.844;8.120;2022-07-10T00:41:00;100093.88;;;19.21;56.70
8039;BME280;4062;49.844;8.120;2022-07-10T00:43:00;100102.81;;;19.21;57.04
8039;BME280;4062;49.844;8.120;2022-07-10T00:45:01;100107.28;;;19.21;56.85
8039;BME280;4062;49.844;8.120;2022-07-10T00:47:06;100107.28;;;19.21;56.92
8039;BME280;4062;49.844;8.120;2022-07-10T00:49:08;100105.47;;;19.21;56.95
8039;BME280;4062;49.844;8.120;2022-07-10T00:51:08;100102.81;;;19.21;57.10
8039;BME280;4062;49.844;8.120;2022-07-10T00:53:09;100113.53;;;19.21;57.09
8039;BME280;4062;49.844;8.120;2022-07-10T00:55:11;100115.31;;;19.21;57.01
8039;BME280;4062;49.844;8.120;2022-07-10T00:57:14;100117.13;;;19.20;56.86
8039;BME280;4062;49.844;8.120;2022-07-10T00:59:15;100113.53;;;19.21;56.83
8039;BME280;4062;49.844;8.120;2022-07-10T01:01:17;100118.00;;;19.21;57.13
8039;BME280;4062;49.844;8.120;2022-07-10T01:03:18;100117.13;;;19.20;56.89
8039;BME280;4062;49.844;8.120;2022-07-10T01:05:18;100117.13;;;19.20;57.09
8039;BME280;4062;49.844;8.120;2022-07-10T01:07:19;100118.00;;;19.21;57.20
8039;BME280;4062;49.844;8.120;2022-07-10T01:09:20;100111.78;;;19.20;56.68
8039;BME280;4062;49.844;8.120;2022-07-10T01:11:21;100118.88;;;19.21;57.02
8039;BME280;4062;49.844;8.120;2022-07-10T01:13:22;100111.78;;;19.20;57.16
8039;BME280;4062;49.844;8.120;2022-07-10T01:15:23;100113.56;;;19.20;57.14
8039;BME280;4062;49.844;8.120;2022-07-10T01:17:24;100109.94;;;19.21;57.17
8039;BME280;4062;49.844;8.120;2022-07-10T01:19:26;100111.78;;;19.20;56.80
8039;BME280;4062;49.844;8.120;2022-07-10T01:21:35;100110.88;;;19.20;56.99
8039;BME280;4062;49.844;8.120;2022-07-10T01:23:36;100110.88;;;19.20;56.79
8039;BME280;4062;49.844;8.120;2022-07-10T01:25:37;100109.09;;;19.20;56.77
8039;BME280;4062;49.844;8.120;2022-07-10T01:27:38;100112.72;;;19.19;57.04
8039;BME280;4062;49.844;8.120;2022-07-10T01:29:39;100106.41;;;19.20;57.24
8039;BME280;4062;49.844;8.120;2022-07-10T01:31:40;100110.84;;;19.21;57.14
8039;BME280;4062;49.844;8.120;2022-07-10T01:33:41;100105.53;;;19.20;56.71
8039;BME280;4062;49.844;8.120;2022-07-10T01:35:42;100115.31;;;19.21;57.02
8039;BME280;4062;49.844;8.120;2022-07-10T01:37:43;100117.13;;;19.20;57.06
8039;BME280;4062;49.844;8.120;2022-07-10T01:39:44;100118.00;;;19.21;57.11
8039;BME280;4062;49.844;8.120;2022-07-10T01:41:44;100110.88;;;19.20;57.24
8039;BME280;4062;49.844;8.120;2022-07-10T01:43:45;100110.88;;;19.20;56.98
8039;BME280;4062;49.844;8.120;2022-07-10T01:45:46;100110.88;;;19.20;57.00
8039;BME280;4062;49.844;8.120;2022-07-10T01:47:47;100115.31;;;19.21;56.97
8039;BME280;4062;49.844;8.120;2022-07-10T01:49:47;100111.78;;;19.20;56.79
8039;BME280;4062;49.844;8.120;2022-07-10T01:51:48;100116.25;;;19.20;56.89
8039;BME280;4062;49.844;8.120;2022-07-10T01:53:49;100110.88;;;19.20;57.10
8039;BME280;4062;49.844;8.120;2022-07-10T01:55:49;100112.72;;;19.19;56.89
8039;BME280;4062;49.844;8.120;2022-07-10T01:57:50;100108.22;;;19.20;57.17
8039;BME280;4062;49.844;8.120;2022-07-10T01:59:51;100113.56;;;19.20;56.96
8039;BME280;4062;49.844;8.120;2022-07-10T02:01:51;100118.94;;;19.20;56.74
8039;BME280;4062;49.844;8.120;2022-07-10T02:03:52;100116.25;;;19.20;57.15
8039;BME280;4062;49.844;8.120;2022-07-10T02:06:11;100117.22;;;19.19;56.89
8039;BME280;4062;49.844;8.120;2022-07-10T02:08:12;100117.22;;;19.19;57.08
8039;BME280;4062;49.844;8.120;2022-07-10T02:10:13;100123.44;;;19.19;57.06
8039;BME280;4062;49.844;8.120;2022-07-10T02:12:14;100114.53;;;19.19;57.21
8039;BME280;4062;49.844;8.120;2022-07-10T02:14:16;100110.03;;;19.19;57.04
8039;BME280;4062;49.844;8.120;2022-07-10T02:16:16;100119.81;;;19.20;56.98
8039;BME280;4062;49.844;8.120;2022-07-10T02:18:17;100122.56;;;19.19;56.96
8039;BME280;4062;49.844;8.120;2022-07-10T02:20:18;100122.50;;;19.20;57.03
8039;BME280;4062;49.844;8.120;2022-07-10T02:22:18;100115.41;;;19.19;56.83
8039;BME280;4062;49.844;8.120;2022-07-10T02:24:19;100121.59;;;19.20;57.08
8039;BME280;4062;49.844;8.120;2022-07-10T02:26:20;100118.94;;;19.20;57.02
8039;BME280;4062;49.844;8.120;2022-07-10T02:28:20;100110.88;;;19.20;57.09
8039;BME280;4062;49.844;8.120;2022-07-10T02:30:21;100112.72;;;19.19;57.25
8039;BME280;4062;49.844;8.120;2022-07-10T02:32:22;100108.31;;;19.18;56.78
8039;BME280;4062;49.844;8.120;2022-07-10T02:34:23;100116.25;;;19.20;57.00
8039;BME280;4062;49.844;8.120;2022-07-10T02:36:23;100114.53;;;19.19;57.09
8039;BME280;4062;49.844;8.120;2022-07-10T02:38:24;100114.53;;;19.19;56.90
8039;BME280;4062;49.844;8.120;2022-07-10T02:40:25;100106.50;;;19.19;57.19
8039;BME280;4062;49.844;8.120;2022-07-10T02:42:25;100115.41;;;19.19;57.16
8039;BME280;4062;49.844;8.120;2022-07-10T02:44:26;100119.91;;;19.19;56.85
8039;BME280;4062;49.844;8.120;2022-07-10T02:46:27;100108.31;;;19.18;57.21
8039;BME280;4062;49.844;8.120;2022-07-10T02:48:28;100114.53;;;19.19;57.23
8039;BME280;4062;49.844;8.120;2022-07-10T02:50:29;100113.56;;;19.20;57.20
8039;BME280;4062;49.844;8.120;2022-07-10T02:52:30;100109.19;;;19.19;57.13
8039;BME280;4062;49.844;8.120;2022-07-10T02:54:31;100115.41;;;19.19;57.03
8039;BME280;4062;49.844;8.120;2022-07-10T02:56:31;100110.97;;;19.18;56.77
8039;BME280;4062;49.844;8.120;2022-07-10T02:58:33;100110.03;;;19.19;57.10
8039;BME280;4062;49.844;8.120;2022-07-10T03:00:34;100112.72;;;19.19;56.88
8039;BME280;4062;49.844;8.120;2022-07-10T03:02:35;100109.19;;;19.19;56.85
8039;BME280;4062;49.844;8.120;2022-07-10T03:04:35;100114.53;;;19.19;57.06
8039;BME280;4062;49.844;8.120;2022-07-10T03:06:36;100114.53;;;19.19;57.24
8039;BME280;4062;49.844;8.120;2022-07-10T03:08:37;100114.53;;;19.19;57.11
8039;BME280;4062;49.844;8.120;2022-07-10T03:10:38;100114.53;;;19.19;56.96
8039;BME280;4062;49.844;8.120;2022-07-10T03:12:39;100121.59;;;19.20;56.95
8039;BME280;4062;49.844;8.120;2022-07-10T03:14:39;100117.22;;;19.19;57.06
8039;BME280;4062;49.844;8.120;2022-07-10T03:16:40;100120.84;;;19.18;57.01
8039;BME280;4062;49.844;8.120;2022-07-10T03:18:41;100124.38;;;19.18;56.97
8039;BME280;4062;49.844;8.120;2022-07-10T03:20:42;100125.25;;;19.19;57.08
8039;BME280;4062;49.844;8.120;2022-07-10T03:22:43;100125.25;;;19.19;56.90
8039;BME280;4062;49.844;8.120;2022-07-10T03:24:44;100125.25;;;19.19;57.24
8039;BME280;4062;49.844;8.120;2022-07-10T03:26:47;100125.25;;;19.19;57.25
8039;BME280;4062;49.844;8.120;2022-07-10T03:28:47;100126.19;;;19.18;57.20
8039;BME280;4062;49.844;8.120;2022-07-10T03:30:48;100133.28;;;19.19;57.17
8039;BME280;4062;49.844;8.120;2022-07-10T03:32:49;100125.25;;;19.19;57.09
8039;BME280;4062;49.844;8.120;2022-07-10T03:34:49;100135.97;;;19.19;57.25
8039;BME280;4062;49.844;8.120;2022-07-10T03:36:50;100135.97;;;19.19;57.05
8039;BME280;4062;49.844;8.120;2022-07-10T03:38:51;100129.72;;;19.18;57.30
8039;BME280;4062;49.844;8.120;2022-07-10T03:40:52;100140.44;;;19.18;56.96
8039;BME280;4062;49.844;8.120;2022-07-10T03:42:53;100135.09;;;19.18;56.93
8039;BME280;4062;49.844;8.120;2022-07-10T03:44:54;100135.09;;;19.18;57.15
8039;BME280;4062;49.844;8.120;2022-07-10T03:46:55;100132.41;;;19.18;57.12
8039;BME280;4062;49.844;8.120;2022-07-10T03:48:56;100132.41;;;19.18;56.96
8039;BME280;4062;49.844;8.120;2022-07-10T03:50:56;100136.91;;;19.18;56.95
8039;BME280;4062;49.844;8.120;2022-07-10T03:52:57;100135.09;;;19.18;57.15
8039;BME280;4062;49.844;8.120;2022-07-10T03:54:57;100124.38;;;19.18;57.26
8039;BME280;4062;49.844;8.120;2022-07-10T03:56:58;100134.22;;;19.18;56.97
8039;BME280;4062;49.844;8.120;2022-07-10T03:59:17;100138.69;;;19.17;56.87
8039;BME280;4062;49.844;8.120;2022-07-10T04:01:18;100144.00;;;19.19;57.05
8039;BME280;4062;49.844;8.120;2022-07-10T04:03:20;100137.75;;;19.18;57.15
8039;BME280;4062;49.844;8.120;2022-07-10T04:05:20;100135.09;;;19.18;57.00
8039;BME280;4062;49.844;8.120;2022-07-10T04:07:21;100142.28;;;19.18;57.12
8039;BME280;4062;49.844;8.120;2022-07-10T04:09:22;100139.59;;;19.18;57.13
8039;BME280;4062;49.844;8.120;2022-07-10T04:11:23;100137.75;;;19.18;57.23
8039;BME280;4062;49.844;8.120;2022-07-10T04:13:23;100144.94;;;19.18;56.86
8039;BME280;4062;49.844;8.120;2022-07-10T04:15:24;100146.69;;;19.19;57.34
8039;BME280;4062;49.844;8.120;2022-07-10T04:17:25;100144.94;;;19.18;57.11
8039;BME280;4062;49.844;8.120;2022-07-10T04:19:26;100151.16;;;19.18;57.07
8039;BME280;4062;49.844;8.120;2022-07-10T04:21:27;100147.63;;;19.18;56.99
8039;BME280;4062;49.844;8.120;2022-07-10T04:23:27;100149.38;;;19.19;57.28
8039;BME280;4062;49.844;8.120;2022-07-10T04:25:28;100149.41;;;19.17;57.01
8039;BME280;4062;49.844;8.120;2022-07-10T04:27:29;100144.94;;;19.18;56.91
8039;BME280;4062;49.844;8.120;2022-07-10T04:29:30;100139.59;;;19.18;57.17
8039;BME280;4062;49.844;8.120;2022-07-10T04:31:31;100143.13;;;19.18;57.07
8039;BME280;4062;49.844;8.120;2022-07-10T04:33:32;100157.41;;;19.19;56.87
8039;BME280;4062;49.844;8.120;2022-07-10T04:35:33;100152.97;;;19.18;56.99
8039;BME280;4062;49.844;8.120;2022-07-10T04:37:33;100149.41;;;19.17;57.24
8039;BME280;4062;49.844;8.120;2022-07-10T04:39:36;100157.44;;;19.17;57.03
8039;BME280;4062;49.844;8.120;2022-07-10T04:41:38;100158.34;;;19.18;57.11
8039;BME280;4062;49.844;8.120;2022-07-10T04:43:38;100161.03;;;19.18;57.04
8039;BME280;4062;49.844;8.120;2022-07-10T04:45:39;100156.59;;;19.17;57.04
8039;BME280;4062;49.844;8.120;2022-07-10T04:47:40;100159.19;;;19.18;57.11
8039;BME280;4062;49.844;8.120;2022-07-10T04:49:40;100165.50;;;19.17;57.08
8039;BME280;4062;49.844;8.120;2022-07-10T04:51:41;100167.22;;;19.18;56.80
8039;BME280;4062;49.844;8.120;2022-07-10T04:53:42;100171.72;;;19.18;56.88
8039;BME280;4062;49.844;8.120;2022-07-10T04:55:42;100175.25;;;19.18;57.17
8039;BME280;4062;49.844;8.120;2022-07-10T04:57:43;100173.53;;;19.17;57.18
8039;BME280;4062;49.844;8.120;2022-07-10T04:59:44;100177.09;;;19.18;57.10
8039;BME280;4062;49.844;8.120;2022-07-10T05:01:45;100176.22;;;19.17;56.95
8039;BME280;4062;49.844;8.120;2022-07-10T05:03:46;100181.56;;;19.17;56.87
8039;BME280;4062;49.844;8.120;2022-07-10T05:05:47;100191.34;;;19.18;57.42
8039;BME280;4062;49.844;8.120;2022-07-10T05:07:47;100188.75;;;19.17;57.05
8039;BME280;4062;49.844;8.120;2022-07-10T05:09:48;100187.81;;;19.18;57.24
8039;BME280;4062;49.844;8.120;2022-07-10T05:11:49;100190.47;;;19.18;57.03
8039;BME280;4062;49.844;8.120;2022-07-10T05:13:49;100192.28;;;19.17;56.99
8039;BME280;4062;49.844;8.120;2022-07-10T05:15:50;100189.59;;;19.17;57.14
8039;BME280;4062;49.844;8.120;2022-07-10T05:17:51;100187.81;;;19.18;57.16
8039;BME280;4062;49.844;8.120;2022-07-10T05:19:52;100187.81;;;19.18;57.11
8039;BME280;4062;49.844;8.120;2022-07-10T05:21:54;100194.09;;;19.17;56.94
8039;BME280;4062;49.844;8.120;2022-07-10T05:23:54;100184.25;;;19.17;57.23
8039;BME280;4062;49.844;8.120;2022-07-10T05:25:55;100189.59;;;19.17;56.80
8039;BME280;4062;49.844;8.120;2022-07-10T05:27:56;100189.59;;;19.17;57.20
8039;BME280;4062;49.844;8.120;2022-07-10T05:29:57;100194.09;;;19.17;57.28
8039;BME280;4062;49.844;8.120;2022-07-10T05:31:57;100196.69;;;19.18;57.07
8039;BME280;4062;49.844;8.120;2022-07-10T05:33:58;100187.81;;;19.18;57.11
8039;BME280;4062;49.844;8.120;2022-07-10T05:35:59;100195.84;;;19.18;57.37
8039;BME280;4062;49.844;8.120;2022-07-10T05:38:00;100194.09;;;19.17;56.91
8039;BME280;4062;49.844;8.120;2022-07-10T05:40:00;100195.84;;;19.18;57.25
8039;BME280;4062;49.844;8.120;2022-07-10T05:42:01;100200.31;;;19.17;57.25
8039;BME280;4062;49.844;8.120;2022-07-10T05:44:02;100201.19;;;19.18;57.38
8039;BME280;4062;49.844;8.120;2022-07-10T05:46:03;100194.97;;;19.17;57.19
8039;BME280;4062;49.844;8.120;2022-07-10T05:48:04;100191.41;;;19.17;57.26
8039;BME280;4062;49.844;8.120;2022-07-10T05:50:05;100202.13;;;19.17;57.37
8039;BME280;4062;49.844;8.120;2022-07-10T05:52:06;100206.56;;;19.18;57.07
8039;BME280;4062;49.844;8.120;2022-07-10T05:54:07;100207.50;;;19.17;56.93
8039;BME280;4062;49.844;8.120;2022-07-10T05:56:08;100201.25;;;19.16;57.24
8039;BME280;4062;49.844;8.120;2022-07-10T05:58:09;100209.28;;;19.16;57.16
8039;BME280;4062;49.844;8.120;2022-07-10T06:00:10;100200.31;;;19.17;57.22
8039;BME280;4062;49.844;8.120;2022-07-10T06:02:11;100202.13;;;19.17;57.11
8039;BME280;4062;49.844;8.120;2022-07-10T06:04:12;100203.00;;;19.17;57.11
8039;BME280;4062;49.844;8.120;2022-07-10T06:06:13;100197.63;;;19.17;56.90
8039;BME280;4062;49.844;8.120;2022-07-10T06:08:16;100199.47;;;19.17;57.08
8039;BME280;4062;49.844;8.120;2022-07-10T06:10:17;100196.78;;;19.17;57.13
8039;BME280;4062;49.844;8.120;2022-07-10T06:12:17;100202.13;;;19.17;57.26
8039;BME280;4062;49.844;8.120;2022-07-10T06:14:18;100193.16;;;19.18;57.17
8039;BME280;4062;49.844;8.120;2022-07-10T06:16:19;100201.19;;;19.18;57.35
8039;BME280;4062;49.844;8.120;2022-07-10T06:18:19;100194.97;;;19.17;57.19
8039;BME280;4062;49.844;8.120;2022-07-10T06:20:20;100196.69;;;19.18;57.10
8039;BME280;4062;49.844;8.120;2022-07-10T06:22:21;100200.25;;;19.19;57.04
8039;BME280;4062;49.844;8.120;2022-07-10T06:24:30;100199.38;;;19.18;57.18
8039;BME280;4062;49.844;8.120;2022-07-10T06:26:31;100198.34;;;19.21;57.22
8039;BME280;4062;49.844;8.120;2022-07-10T06:28:34;100200.09;;;19.22;57.02
8039;BME280;4062;49.844;8.120;2022-07-10T06:30:35;100206.25;;;19.24;56.96
8039;BME280;4062;49.844;8.120;2022-07-10T06:32:36;100200.97;;;19.23;57.23
8039;BME280;4062;49.844;8.120;2022-07-10T06:34:37;100202.72;;;19.24;56.83
8039;BME280;4062;49.844;8.120;2022-07-10T06:36:38;100206.97;;;19.28;57.09
8039;BME280;4062;49.844;8.120;2022-07-10T06:38:38;100201.53;;;19.29;56.81
8039;BME280;4062;49.844;8.120;2022-07-10T06:40:40;100203.28;;;19.30;56.66
8039;BME280;4062;49.844;8.120;2022-07-10T06:42:42;100210.38;;;19.31;56.72
8039;BME280;4062;49.844;8.120;2022-07-10T06:44:43;100205.91;;;19.32;56.62
8039;BME280;4062;49.844;8.120;2022-07-10T06:46:44;100217.47;;;19.32;56.71
8039;BME280;4062;49.844;8.120;2022-07-10T06:49:04;100212.25;;;19.29;57.02
8039;BME280;4062;49.844;8.120;2022-07-10T06:51:05;100208.63;;;19.30;56.98
8039;BME280;4062;49.844;8.120;2022-07-10T06:53:07;100217.59;;;19.29;56.87
8039;BME280;4062;49.844;8.120;2022-07-10T06:55:09;100213.13;;;19.30;56.70
8039;BME280;4062;49.844;8.120;2022-07-10T06:57:10;100202.50;;;19.28;57.08
8039;BME280;4062;49.844;8.120;2022-07-10T06:59:10;100203.44;;;19.27;56.97
8039;BME280;4062;49.844;8.120;2022-07-10T07:01:11;100200.81;;;19.26;56.98
8039;BME280;4062;49.844;8.120;2022-07-10T07:03:12;100207.06;;;19.26;56.92
8039;BME280;4062;49.844;8.120;2022-07-10T07:05:13;100202.56;;;19.27;56.82
8039;BME280;4062;49.844;8.120;2022-07-10T07:07:14;100208.00;;;19.25;57.07
8039;BME280;4062;49.844;8.120;2022-07-10T07:09:15;100201.75;;;19.25;56.77
8039;BME280;4062;49.844;8.120;2022-07-10T07:11:16;100203.59;;;19.24;57.12
8039;BME280;4062;49.844;8.120;2022-07-10T07:13:16;100195.53;;;19.24;57.17
8039;BME280;4062;49.844;8.120;2022-07-10T07:15:17;100204.44;;;19.25;57.15
8039;BME280;4062;49.844;8.120;2022-07-10T07:17:18;100192.88;;;19.24;57.01
8039;BME280;4062;49.844;8.120;2022-07-10T07:19:23;100203.59;;;19.24;56.87
8039;BME280;4062;49.844;8.120;2022-07-10T07:21:32;100194.59;;;19.25;57.04
8039;BME280;4062;49.844;8.120;2022-07-10T07:23:51;100199.06;;;19.25;57.22
8039;BME280;4062;49.844;8.120;2022-07-10T07:25:52;100192.00;;;19.24;56.88
8039;BME280;4062;49.844;8.120;2022-07-10T07:27:53;100199.16;;;19.23;57.08
8039;BME280;4062;49.844;8.120;2022-07-10T07:29:54;100196.47;;;19.23;56.98
8039;BME280;4062;49.844;8.120;2022-07-10T07:31:54;100189.31;;;19.24;56.95
8039;BME280;4062;49.844;8.120;2022-07-10T07:33:55;100195.53;;;19.24;57.09
8039;BME280;4062;49.844;8.120;2022-07-10T07:35:57;100200.97;;;19.23;57.22
8039;BME280;4062;49.844;8.120;2022-07-10T07:37:58;100212.56;;;19.23;57.21
8039;BME280;4062;49.844;8.120;2022-07-10T07:39:59;100209.03;;;19.23;57.17
8039;BME280;4062;49.844;8.120;2022-07-10T07:41:59;100209.03;;;19.23;57.14
8039;BME280;4062;49.844;8.120;2022-07-10T07:44:00;100207.19;;;19.23;57.01
8039;BME280;4062;49.844;8.120;2022-07-10T07:46:01;100209.03;;;19.23;57.25
8039;BME280;4062;49.844;8.120;2022-07-10T07:48:01;100218.81;;;19.24;56.80
8039;BME280;4062;49.844;8.120;2022-07-10T07:50:03;100211.69;;;19.23;56.97
8039;BME280;4062;49.844;8.120;2022-07-10T07:52:04;100217.91;;;19.23;57.17
8039;BME280;4062;49.844;8.120;2022-07-10T07:54:05;100217.91;;;19.23;57.01
8039;BME280;4062;49.844;8.120;2022-07-10T07:56:06;100219.72;;;19.23;57.32
8039;BME280;4062;49.844;8.120;2022-07-10T07:58:07;100217.91;;;19.23;57.28
8039;BME280;4062;49.844;8.120;2022-07-10T08:00:09;100214.38;;;19.23;57.41
8039;BME280;4062;49.844;8.120;2022-07-10T08:02:11;100210.81;;;19.22;57.07
8039;BME280;4062;49.844;8.120;2022-07-10T08:04:11;100211.69;;;19.23;57.25
8039;BME280;4062;49.844;8.120;2022-07-10T08:06:12;100210.81;;;19.22;57.27
8039;BME280;4062;49.844;8.120;2022-07-10T08:08:13;100205.47;;;19.22;57.23
8039;BME280;4062;49.844;8.120;2022-07-10T08:10:21;100206.34;;;19.23;56.95
8039;BME280;4062;49.844;8.120;2022-07-10T08:12:23;100209.03;;;19.23;57.25
8039;BME280;4062;49.844;8.120;2022-07-10T08:14:23;100212.56;;;19.23;57.22
8039;BME280;4062;49.844;8.120;2022-07-10T08:16:24;100213.50;;;19.22;57.25
8039;BME280;4062;49.844;8.120;2022-07-10T08:18:25;100207.28;;;19.21;56.95
8039;BME280;4062;49.844;8.120;2022-07-10T08:20:26;100207.28;;;19.21;56.92
8039;BME280;4062;49.844;8.120;2022-07-10T08:22:27;100207.19;;;19.23;57.21
8039;BME280;4062;49.844;8.120;2022-07-10T08:24:28;100203.66;;;19.23;57.19
8039;BME280;4062;49.844;8.120;2022-07-10T08:26:29;100207.19;;;19.23;57.03
8039;BME280;4062;49.844;8.120;2022-07-10T08:28:30;100203.66;;;19.23;56.91
8039;BME280;4062;49.844;8.120;2022-07-10T08:30:31;100212.56;;;19.23;56.88
8039;BME280;4062;49.844;8.120;2022-07-10T08:32:32;100206.34;;;19.23;57.06
8039;BME280;4062;49.844;8.120;2022-07-10T08:34:33;100207.19;;;19.23;57.31
8039;BME280;4062;49.844;8.120;2022-07-10T08:36:34;100200.97;;;19.23;57.28
8039;BME280;4062;49.844;8.120;2022-07-10T08:38:35;100201.84;;;19.23;56.88
8039;BME280;4062;49.844;8.120;2022-07-10T08:40:36;100197.41;;;19.22;57.14
8039;BME280;4062;49.844;8.120;2022-07-10T08:42:41;100189.38;;;19.22;57.34
8039;BME280;4062;49.844;8.120;2022-07-10T08:44:42;100202.78;;;19.22;57.14
8039;BME280;4062;49.844;8.120;2022-07-10T08:46:46;100196.47;;;19.23;57.33
8039;BME280;4062;49.844;8.120;2022-07-10T08:48:48;100192.94;;;19.23;57.04
8039;BME280;4062;49.844;8.120;2022-07-10T08:50:53;100184.03;;;19.22;57.33
8039;BME280;4062;49.844;8.120;2022-07-10T08:53:13;100193.88;;;19.21;56.98
8039;BME280;4062;49.844;8.120;2022-07-10T08:55:17;100195.63;;;19.23;57.34
8039;BME280;4062;49.844;8.120;2022-07-10T08:57:18;100196.56;;;19.21;57.27
8039;BME280;4062;49.844;8.120;2022-07-10T08:59:21;100195.69;;;19.21;56.85
8039;BME280;4062;49.844;8.120;2022-07-10T09:01:23;100188.53;;;19.21;57.01
8039;BME280;4062;49.844;8.120;2022-07-10T09:03:23;100193.88;;;19.21;56.94
8039;BME280;4062;49.844;8.120;2022-07-10T09:05:25;100186.69;;;19.22;56.92
8039;BME280;4062;49.844;8.120;2022-07-10T09:07:37;100192.06;;;19.22;56.82
8039;BME280;4062;49.844;8.120;2022-07-10T09:09:55;100187.59;;;19.23;57.29
8039;BME280;4062;49.844;8.120;2022-07-10T09:11:58;100192.94;;;19.23;56.88
8039;BME280;4062;49.844;8.120;2022-07-10T09:14:02;100189.38;;;19.22;56.91
8039;BME280;4062;49.844;8.120;2022-07-10T09:16:08;100192.94;;;19.23;56.97
8039;BME280;4062;49.844;8.120;2022-07-10T09:18:23;100183.16;;;19.21;56.94
8039;BME280;4062;49.844;8.120;2022-07-10T09:20:35;100185.84;;;19.21;57.11
8039;BME280;4062;49.844;8.120;2022-07-10T09:22:35;100182.22;;;19.23;56.93
8039;BME280;4062;49.844;8.120;2022-07-10T09:24:39;100183.09;;;19.23;56.89
8039;BME280;4062;49.844;8.120;2022-07-10T09:26:41;100187.59;;;19.23;57.16
8039;BME280;4062;49.844;8.120;2022-07-10T09:28:43;100184.03;;;19.22;57.01
8039;BME280;4062;49.844;8.120;2022-07-10T09:30:45;100187.59;;;19.23;57.16
8039;BME280;4062;49.844;8.120;2022-07-10T09:32:46;100191.19;;;19.21;57.01
8039;BME280;4062;49.844;8.120;2022-07-10T09:34:51;100190.28;;;19.23;56.89
8039;BME280;4062;49.844;8.120;2022-07-10T09:37:28;100181.34;;;19.22;57.15
8039;BME280;4062;49.844;8.120;2022-07-10T09:39:28;100176.88;;;19.23;57.13
8039;BME280;4062;49.844;8.120;2022-07-10T09:41:30;100174.19;;;19.23;57.08
8039;BME280;4062;49.844;8.120;2022-07-10T09:44:02;100171.50;;;19.23;57.03
8039;BME280;4062;49.844;8.120;2022-07-10T09:46:08;100167.00;;;19.23;57.21
8039;BME280;4062;49.844;8.120;2022-07-10T09:48:09;100165.28;;;19.22;57.38
8039;BME280;4062;49.844;8.120;2022-07-10T09:52:28;100164.34;;;19.23;56.83
8039;BME280;4062;49.844;8.120;2022-07-10T09:54:29;100161.66;;;19.23;56.94
8039;BME280;4062;49.844;8.120;2022-07-10T09:58:43;100153.63;;;19.23;57.14
8039;BME280;4062;49.844;8.120;2022-07-10T10:00:45;100158.97;;;19.23;56.94
8039;BME280;4062;49.844;8.120;2022-07-10T10:02:47;100160.78;;;19.23;57.23
8039;BME280;4062;49.844;8.120;2022-07-10T10:04:48;100164.41;;;19.21;56.98
8039;BME280;4062;49.844;8.120;2022-07-10T10:06:52;100151.88;;;19.22;57.33
8039;BME280;4062;49.844;8.120;2022-07-10T10:09:04;100163.47;;;19.23;56.93
8039;BME280;4062;49.844;8.120;2022-07-10T10:11:07;100163.47;;;19.23;56.94
8039;BME280;4062;49.844;8.120;2022-07-10T10:13:11;100163.47;;;19.23;56.81
8039;BME280;4062;49.844;8.120;2022-07-10T10:15:12;100154.50;;;19.24;57.06
8039;BME280;4062;49.844;8.120;2022-07-10T10:17:15;100159.91;;;19.22;56.98
8039;BME280;4062;49.844;8.120;2022-07-10T10:19:18;100162.59;;;19.22;56.83
8039;BME280;4062;49.844;8.120;2022-07-10T10:21:39;100159.91;;;19.22;56.88
8039;BME280;4062;49.844;8.120;2022-07-10T10:23:41;100157.22;;;19.22;57.22
8039;BME280;4062;49.844;8.120;2022-07-10T10:25:42;100158.13;;;19.23;57.14
8039;BME280;4062;49.844;8.120;2022-07-10T10:27:43;100149.19;;;19.22;56.97
8039;BME280;4062;49.844;8.120;2022-07-10T10:29:45;100151.88;;;19.22;56.96
8039;BME280;4062;49.844;8.120;2022-07-10T10:31:48;100143.84;;;19.22;57.13
8039;BME280;4062;49.844;8.120;2022-07-10T10:33:53;100150.09;;;19.23;56.65
8039;BME280;4062;49.844;8.120;2022-07-10T10:35:55;100147.47;;;19.21;57.30
8039;BME280;4062;49.844;8.120;2022-07-10T10:37:56;100140.31;;;19.21;57.17
8039;BME280;4062;49.844;8.120;2022-07-10T10:39:57;100137.63;;;19.21;56.90
8039;BME280;4062;49.844;8.120;2022-07-10T10:41:58;100134.88;;;19.23;57.12
8039;BME280;4062;49.844;8.120;2022-07-10T10:46:24;100142.03;;;19.23;57.06
8039;BME280;4062;49.844;8.120;2022-07-10T10:48:25;100137.63;;;19.21;57.22
8039;BME280;4062;49.844;8.120;2022-07-10T10:53:00;100133.13;;;19.22;57.11
8039;BME280;4062;49.844;8.120;2022-07-10T10:55:03;100127.75;;;19.22;56.94
8039;BME280;4062;49.844;8.120;2022-07-10T10:57:17;100127.75;;;19.22;56.97
8039;BME280;4062;49.844;8.120;2022-07-10T11:00:04;100126.91;;;19.21;57.05
8039;BME280;4062;49.844;8.120;2022-07-10T11:02:26;100123.28;;;19.23;57.17
8039;BME280;4062;49.844;8.120;2022-07-10T11:04:28;100121.56;;;19.21;56.76